<?xml version="1.0" encoding="UTF-8" standalone="no" ?>
 
<gpx xmlns="http://www.topografix.com/GPX/1/1" creator="bikehike.co.uk" version="1.1" 
    xmlns:xsi="http://www.w3.org/2001/XMLSchema-instance" 
    xsi:schemaLocation="http://www.topografix.com/GPX/1/1 http://www.topografix.com/GPX/1/1/gpx.xsd">


  <trk>
    <name>190925-RLE-Weat</name>
    <trkseg>
      <trkpt lat="52.368040" lon="-1.836120">
       <ele>144.28</ele>
       <time>2023-09-20T16:23:26Z</time>
      </trkpt>
      <trkpt lat="52.367520" lon="-1.836560">
       <ele>142.84</ele>
       <time>2023-09-20T16:23:38Z</time>
      </trkpt>
      <trkpt lat="52.367350" lon="-1.837010">
       <ele>143.57</ele>
       <time>2023-09-20T16:23:44Z</time>
      </trkpt>
      <trkpt lat="52.366900" lon="-1.841190">
       <ele>148.59</ele>
       <time>2023-09-20T16:24:38Z</time>
      </trkpt>
      <trkpt lat="52.367080" lon="-1.844590">
       <ele>148.74</ele>
       <time>2023-09-20T16:25:21Z</time>
      </trkpt>
      <trkpt lat="52.367330" lon="-1.846580">
       <ele>148.8</ele>
       <time>2023-09-20T16:25:47Z</time>
      </trkpt>
      <trkpt lat="52.367250" lon="-1.851470">
       <ele>157.89</ele>
       <time>2023-09-20T16:26:49Z</time>
      </trkpt>
      <trkpt lat="52.367360" lon="-1.851940">
       <ele>157.51</ele>
       <time>2023-09-20T16:26:55Z</time>
      </trkpt>
      <trkpt lat="52.369820" lon="-1.855560">
       <ele>155.85</ele>
       <time>2023-09-20T16:28:04Z</time>
      </trkpt>
      <trkpt lat="52.368500" lon="-1.858530">
       <ele>152.79</ele>
       <time>2023-09-20T16:28:50Z</time>
      </trkpt>
      <trkpt lat="52.367080" lon="-1.862400">
       <ele>157.26</ele>
       <time>2023-09-20T16:29:48Z</time>
      </trkpt>
      <trkpt lat="52.367570" lon="-1.862870">
       <ele>157.28</ele>
       <time>2023-09-20T16:29:59Z</time>
      </trkpt>
      <trkpt lat="52.367680" lon="-1.863150">
       <ele>157.35</ele>
       <time>2023-09-20T16:30:04Z</time>
      </trkpt>
      <trkpt lat="52.368680" lon="-1.867940">
       <ele>153.11</ele>
       <time>2023-09-20T16:31:08Z</time>
      </trkpt>
      <trkpt lat="52.368720" lon="-1.868470">
       <ele>151.74</ele>
       <time>2023-09-20T16:31:14Z</time>
      </trkpt>
      <trkpt lat="52.368560" lon="-1.870760">
       <ele>148.79</ele>
       <time>2023-09-20T16:31:44Z</time>
      </trkpt>
      <trkpt lat="52.368170" lon="-1.871930">
       <ele>149.57</ele>
       <time>2023-09-20T16:32:00Z</time>
      </trkpt>
      <trkpt lat="52.368090" lon="-1.872410">
       <ele>150.52</ele>
       <time>2023-09-20T16:32:07Z</time>
      </trkpt>
      <trkpt lat="52.369090" lon="-1.874440">
       <ele>155.66</ele>
       <time>2023-09-20T16:32:40Z</time>
      </trkpt>
      <trkpt lat="52.369080" lon="-1.874890">
       <ele>156.74</ele>
       <time>2023-09-20T16:32:45Z</time>
      </trkpt>
      <trkpt lat="52.368950" lon="-1.875420">
       <ele>158.01</ele>
       <time>2023-09-20T16:32:53Z</time>
      </trkpt>
      <trkpt lat="52.368990" lon="-1.876390">
       <ele>160.34</ele>
       <time>2023-09-20T16:33:05Z</time>
      </trkpt>
      <trkpt lat="52.368870" lon="-1.877240">
       <ele>160.51</ele>
       <time>2023-09-20T16:33:16Z</time>
      </trkpt>
      <trkpt lat="52.367240" lon="-1.879440">
       <ele>155.73</ele>
       <time>2023-09-20T16:34:00Z</time>
      </trkpt>
      <trkpt lat="52.366200" lon="-1.880470">
       <ele>158.56</ele>
       <time>2023-09-20T16:34:25Z</time>
      </trkpt>
      <trkpt lat="52.365180" lon="-1.882920">
       <ele>160.4</ele>
       <time>2023-09-20T16:35:03Z</time>
      </trkpt>
      <trkpt lat="52.364480" lon="-1.886370">
       <ele>163.99</ele>
       <time>2023-09-20T16:35:49Z</time>
      </trkpt>
      <trkpt lat="52.364280" lon="-1.888890">
       <ele>164.89</ele>
       <time>2023-09-20T16:36:21Z</time>
      </trkpt>
      <trkpt lat="52.364090" lon="-1.889030">
       <ele>164.56</ele>
       <time>2023-09-20T16:36:25Z</time>
      </trkpt>
      <trkpt lat="52.362540" lon="-1.889150">
       <ele>158.17</ele>
       <time>2023-09-20T16:36:57Z</time>
      </trkpt>
      <trkpt lat="52.360950" lon="-1.889070">
       <ele>155.18</ele>
       <time>2023-09-20T16:37:30Z</time>
      </trkpt>
      <trkpt lat="52.360760" lon="-1.890360">
       <ele>154.28</ele>
       <time>2023-09-20T16:37:47Z</time>
      </trkpt>
      <trkpt lat="52.359540" lon="-1.892840">
       <ele>154.77</ele>
       <time>2023-09-20T16:38:27Z</time>
      </trkpt>
      <trkpt lat="52.359380" lon="-1.893380">
       <ele>154.21</ele>
       <time>2023-09-20T16:38:35Z</time>
      </trkpt>
      <trkpt lat="52.359220" lon="-1.898680">
       <ele>155.33</ele>
       <time>2023-09-20T16:39:42Z</time>
      </trkpt>
      <trkpt lat="52.359360" lon="-1.900680">
       <ele>157.31</ele>
       <time>2023-09-20T16:40:08Z</time>
      </trkpt>
      <trkpt lat="52.359590" lon="-1.902370">
       <ele>159.26</ele>
       <time>2023-09-20T16:40:30Z</time>
      </trkpt>
      <trkpt lat="52.360110" lon="-1.904140">
       <ele>161.12</ele>
       <time>2023-09-20T16:40:54Z</time>
      </trkpt>
      <trkpt lat="52.362220" lon="-1.908230">
       <ele>174.86</ele>
       <time>2023-09-20T16:42:02Z</time>
      </trkpt>
      <trkpt lat="52.363320" lon="-1.909750">
       <ele>180.61</ele>
       <time>2023-09-20T16:42:32Z</time>
      </trkpt>
      <trkpt lat="52.364810" lon="-1.911600">
       <ele>186.54</ele>
       <time>2023-09-20T16:43:11Z</time>
      </trkpt>
      <trkpt lat="52.366310" lon="-1.911580">
       <ele>186.59</ele>
       <time>2023-09-20T16:43:42Z</time>
      </trkpt>
      <trkpt lat="52.367470" lon="-1.912010">
       <ele>182.84</ele>
       <time>2023-09-20T16:44:07Z</time>
      </trkpt>
      <trkpt lat="52.367930" lon="-1.911950">
       <ele>183.33</ele>
       <time>2023-09-20T16:44:16Z</time>
      </trkpt>
      <trkpt lat="52.368850" lon="-1.911640">
       <ele>185.85</ele>
       <time>2023-09-20T16:44:36Z</time>
      </trkpt>
      <trkpt lat="52.369870" lon="-1.912210">
       <ele>186.28</ele>
       <time>2023-09-20T16:44:58Z</time>
      </trkpt>
      <trkpt lat="52.370780" lon="-1.912520">
       <ele>183.97</ele>
       <time>2023-09-20T16:45:17Z</time>
      </trkpt>
      <trkpt lat="52.372510" lon="-1.914100">
       <ele>186.49</ele>
       <time>2023-09-20T16:45:58Z</time>
      </trkpt>
      <trkpt lat="52.373970" lon="-1.915810">
       <ele>187.85</ele>
       <time>2023-09-20T16:46:36Z</time>
      </trkpt>
      <trkpt lat="52.374950" lon="-1.916420">
       <ele>189.9</ele>
       <time>2023-09-20T16:46:57Z</time>
      </trkpt>
      <trkpt lat="52.375970" lon="-1.917550">
       <ele>192.67</ele>
       <time>2023-09-20T16:47:23Z</time>
      </trkpt>
      <trkpt lat="52.378050" lon="-1.918740">
       <ele>198.15</ele>
       <time>2023-09-20T16:48:09Z</time>
      </trkpt>
      <trkpt lat="52.378210" lon="-1.919630">
       <ele>199.56</ele>
       <time>2023-09-20T16:48:20Z</time>
      </trkpt>
      <trkpt lat="52.378590" lon="-1.920440">
       <ele>200.59</ele>
       <time>2023-09-20T16:48:33Z</time>
      </trkpt>
      <trkpt lat="52.378220" lon="-1.920890">
       <ele>202.07</ele>
       <time>2023-09-20T16:48:43Z</time>
      </trkpt>
      <trkpt lat="52.377930" lon="-1.920970">
       <ele>202.16</ele>
       <time>2023-09-20T16:48:49Z</time>
      </trkpt>
      <trkpt lat="52.376370" lon="-1.925600">
       <ele>198.8</ele>
       <time>2023-09-20T16:49:56Z</time>
      </trkpt>
      <trkpt lat="52.376110" lon="-1.926200">
       <ele>194.27</ele>
       <time>2023-09-20T16:50:05Z</time>
      </trkpt>
      <trkpt lat="52.375670" lon="-1.926800">
       <ele>187.95</ele>
       <time>2023-09-20T16:50:17Z</time>
      </trkpt>
      <trkpt lat="52.375300" lon="-1.927870">
       <ele>180.71</ele>
       <time>2023-09-20T16:50:33Z</time>
      </trkpt>
      <trkpt lat="52.374590" lon="-1.928580">
       <ele>172.84</ele>
       <time>2023-09-20T16:50:50Z</time>
      </trkpt>
      <trkpt lat="52.374290" lon="-1.929160">
       <ele>170.02</ele>
       <time>2023-09-20T16:50:59Z</time>
      </trkpt>
      <trkpt lat="52.374170" lon="-1.930030">
       <ele>167.84</ele>
       <time>2023-09-20T16:51:11Z</time>
      </trkpt>
      <trkpt lat="52.374810" lon="-1.932270">
       <ele>155.61</ele>
       <time>2023-09-20T16:51:42Z</time>
      </trkpt>
      <trkpt lat="52.374870" lon="-1.932810">
       <ele>152.3</ele>
       <time>2023-09-20T16:51:49Z</time>
      </trkpt>
      <trkpt lat="52.374810" lon="-1.933650">
       <ele>147.41</ele>
       <time>2023-09-20T16:52:00Z</time>
      </trkpt>
      <trkpt lat="52.374480" lon="-1.935370">
       <ele>140.08</ele>
       <time>2023-09-20T16:52:22Z</time>
      </trkpt>
      <trkpt lat="52.375250" lon="-1.937430">
       <ele>136.01</ele>
       <time>2023-09-20T16:52:53Z</time>
      </trkpt>
      <trkpt lat="52.376200" lon="-1.940940">
       <ele>139.88</ele>
       <time>2023-09-20T16:53:42Z</time>
      </trkpt>
      <trkpt lat="52.376350" lon="-1.941940">
       <ele>140.57</ele>
       <time>2023-09-20T16:53:55Z</time>
      </trkpt>
      <trkpt lat="52.376630" lon="-1.942650">
       <ele>141.92</ele>
       <time>2023-09-20T16:54:05Z</time>
      </trkpt>
      <trkpt lat="52.376500" lon="-1.943990">
       <ele>141.01</ele>
       <time>2023-09-20T16:54:23Z</time>
      </trkpt>
      <trkpt lat="52.376630" lon="-1.944210">
       <ele>140.95</ele>
       <time>2023-09-20T16:54:26Z</time>
      </trkpt>
      <trkpt lat="52.377270" lon="-1.944770">
       <ele>141.72</ele>
       <time>2023-09-20T16:54:41Z</time>
      </trkpt>
      <trkpt lat="52.377620" lon="-1.945640">
       <ele>141.27</ele>
       <time>2023-09-20T16:54:55Z</time>
      </trkpt>
      <trkpt lat="52.377780" lon="-1.946360">
       <ele>140.79</ele>
       <time>2023-09-20T16:55:04Z</time>
      </trkpt>
      <trkpt lat="52.377660" lon="-1.947480">
       <ele>139.42</ele>
       <time>2023-09-20T16:55:19Z</time>
      </trkpt>
      <trkpt lat="52.377710" lon="-1.947640">
       <ele>139.42</ele>
       <time>2023-09-20T16:55:21Z</time>
      </trkpt>
      <trkpt lat="52.377850" lon="-1.947880">
       <ele>139.77</ele>
       <time>2023-09-20T16:55:25Z</time>
      </trkpt>
      <trkpt lat="52.379000" lon="-1.949030">
       <ele>147.67</ele>
       <time>2023-09-20T16:55:53Z</time>
      </trkpt>
      <trkpt lat="52.378990" lon="-1.950090">
       <ele>149.26</ele>
       <time>2023-09-20T16:56:07Z</time>
      </trkpt>
      <trkpt lat="52.379100" lon="-1.950560">
       <ele>150.35</ele>
       <time>2023-09-20T16:56:13Z</time>
      </trkpt>
      <trkpt lat="52.378750" lon="-1.953480">
       <ele>153.35</ele>
       <time>2023-09-20T16:56:51Z</time>
      </trkpt>
      <trkpt lat="52.378490" lon="-1.954590">
       <ele>154.77</ele>
       <time>2023-09-20T16:57:06Z</time>
      </trkpt>
      <trkpt lat="52.377350" lon="-1.957240">
       <ele>157.83</ele>
       <time>2023-09-20T16:57:47Z</time>
      </trkpt>
      <trkpt lat="52.377060" lon="-1.958510">
       <ele>161.58</ele>
       <time>2023-09-20T16:58:04Z</time>
      </trkpt>
      <trkpt lat="52.375780" lon="-1.958290">
       <ele>155.65</ele>
       <time>2023-09-20T16:58:31Z</time>
      </trkpt>
      <trkpt lat="52.375180" lon="-1.958040">
       <ele>152.71</ele>
       <time>2023-09-20T16:58:43Z</time>
      </trkpt>
      <trkpt lat="52.372540" lon="-1.956350">
       <ele>141.76</ele>
       <time>2023-09-20T16:59:42Z</time>
      </trkpt>
      <trkpt lat="52.372030" lon="-1.958210">
       <ele>141.22</ele>
       <time>2023-09-20T17:00:08Z</time>
      </trkpt>
      <trkpt lat="52.371940" lon="-1.958890">
       <ele>141.43</ele>
       <time>2023-09-20T17:00:17Z</time>
      </trkpt>
      <trkpt lat="52.372050" lon="-1.961380">
       <ele>143</ele>
       <time>2023-09-20T17:00:48Z</time>
      </trkpt>
      <trkpt lat="52.372010" lon="-1.962420">
       <ele>144.28</ele>
       <time>2023-09-20T17:01:02Z</time>
      </trkpt>
      <trkpt lat="52.371220" lon="-1.965040">
       <ele>148.68</ele>
       <time>2023-09-20T17:01:39Z</time>
      </trkpt>
      <trkpt lat="52.371250" lon="-1.965920">
       <ele>150.16</ele>
       <time>2023-09-20T17:01:50Z</time>
      </trkpt>
      <trkpt lat="52.371150" lon="-1.966520">
       <ele>151.38</ele>
       <time>2023-09-20T17:01:58Z</time>
      </trkpt>
      <trkpt lat="52.370700" lon="-1.967850">
       <ele>151.36</ele>
       <time>2023-09-20T17:02:17Z</time>
      </trkpt>
      <trkpt lat="52.369850" lon="-1.968680">
       <ele>148.71</ele>
       <time>2023-09-20T17:02:37Z</time>
      </trkpt>
      <trkpt lat="52.369140" lon="-1.969670">
       <ele>149.81</ele>
       <time>2023-09-20T17:02:57Z</time>
      </trkpt>
      <trkpt lat="52.368480" lon="-1.971160">
       <ele>151.82</ele>
       <time>2023-09-20T17:03:20Z</time>
      </trkpt>
      <trkpt lat="52.368100" lon="-1.971790">
       <ele>152.1</ele>
       <time>2023-09-20T17:03:31Z</time>
      </trkpt>
      <trkpt lat="52.367960" lon="-1.972470">
       <ele>148.52</ele>
       <time>2023-09-20T17:03:40Z</time>
      </trkpt>
      <trkpt lat="52.367570" lon="-1.976580">
       <ele>141.9</ele>
       <time>2023-09-20T17:04:33Z</time>
      </trkpt>
      <trkpt lat="52.367410" lon="-1.976910">
       <ele>142.04</ele>
       <time>2023-09-20T17:04:38Z</time>
      </trkpt>
      <trkpt lat="52.364860" lon="-1.979950">
       <ele>141.17</ele>
       <time>2023-09-20T17:05:44Z</time>
      </trkpt>
      <trkpt lat="52.364670" lon="-1.980080">
       <ele>141.68</ele>
       <time>2023-09-20T17:05:48Z</time>
      </trkpt>
      <trkpt lat="52.364190" lon="-1.976120">
       <ele>140.63</ele>
       <time>2023-09-20T17:06:39Z</time>
      </trkpt>
      <trkpt lat="52.363970" lon="-1.975770">
       <ele>140.52</ele>
       <time>2023-09-20T17:06:45Z</time>
      </trkpt>
      <trkpt lat="52.363200" lon="-1.975830">
       <ele>143.31</ele>
       <time>2023-09-20T17:07:01Z</time>
      </trkpt>
      <trkpt lat="52.363060" lon="-1.975740">
       <ele>143.32</ele>
       <time>2023-09-20T17:07:05Z</time>
      </trkpt>
      <trkpt lat="52.362980" lon="-1.975560">
       <ele>142.95</ele>
       <time>2023-09-20T17:07:07Z</time>
      </trkpt>
      <trkpt lat="52.362970" lon="-1.973850">
       <ele>143.38</ele>
       <time>2023-09-20T17:07:29Z</time>
      </trkpt>
      <trkpt lat="52.362720" lon="-1.972640">
       <ele>144.14</ele>
       <time>2023-09-20T17:07:45Z</time>
      </trkpt>
      <trkpt lat="52.363230" lon="-1.970380">
       <ele>134.48</ele>
       <time>2023-09-20T17:08:16Z</time>
      </trkpt>
      <trkpt lat="52.363220" lon="-1.970030">
       <ele>133.12</ele>
       <time>2023-09-20T17:08:20Z</time>
      </trkpt>
      <trkpt lat="52.362690" lon="-1.969150">
       <ele>131.98</ele>
       <time>2023-09-20T17:08:36Z</time>
      </trkpt>
      <trkpt lat="52.361360" lon="-1.967370">
       <ele>131.35</ele>
       <time>2023-09-20T17:09:11Z</time>
      </trkpt>
      <trkpt lat="52.361090" lon="-1.966860">
       <ele>130.87</ele>
       <time>2023-09-20T17:09:20Z</time>
      </trkpt>
      <trkpt lat="52.359690" lon="-1.970120">
       <ele>141.35</ele>
       <time>2023-09-20T17:10:10Z</time>
      </trkpt>
      <trkpt lat="52.359570" lon="-1.970600">
       <ele>142.62</ele>
       <time>2023-09-20T17:10:17Z</time>
      </trkpt>
      <trkpt lat="52.359400" lon="-1.972310">
       <ele>147.3</ele>
       <time>2023-09-20T17:10:39Z</time>
      </trkpt>
      <trkpt lat="52.359170" lon="-1.973090">
       <ele>150.13</ele>
       <time>2023-09-20T17:10:50Z</time>
      </trkpt>
      <trkpt lat="52.358990" lon="-1.974160">
       <ele>151.99</ele>
       <time>2023-09-20T17:11:04Z</time>
      </trkpt>
      <trkpt lat="52.358460" lon="-1.974970">
       <ele>154.6</ele>
       <time>2023-09-20T17:11:19Z</time>
      </trkpt>
      <trkpt lat="52.357940" lon="-1.975560">
       <ele>158.55</ele>
       <time>2023-09-20T17:11:32Z</time>
      </trkpt>
      <trkpt lat="52.357670" lon="-1.976070">
       <ele>161.77</ele>
       <time>2023-09-20T17:11:41Z</time>
      </trkpt>
      <trkpt lat="52.357170" lon="-1.977430">
       <ele>166.12</ele>
       <time>2023-09-20T17:12:01Z</time>
      </trkpt>
      <trkpt lat="52.357060" lon="-1.978180">
       <ele>167.45</ele>
       <time>2023-09-20T17:12:11Z</time>
      </trkpt>
      <trkpt lat="52.355690" lon="-1.977750">
       <ele>171.07</ele>
       <time>2023-09-20T17:12:39Z</time>
      </trkpt>
      <trkpt lat="52.354680" lon="-1.982890">
       <ele>184.98</ele>
       <time>2023-09-20T17:13:48Z</time>
      </trkpt>
      <trkpt lat="52.354120" lon="-1.984610">
       <ele>188.53</ele>
       <time>2023-09-20T17:14:13Z</time>
      </trkpt>
      <trkpt lat="52.353460" lon="-1.986100">
       <ele>191.95</ele>
       <time>2023-09-20T17:14:36Z</time>
      </trkpt>
      <trkpt lat="52.353110" lon="-1.986640">
       <ele>195.95</ele>
       <time>2023-09-20T17:14:46Z</time>
      </trkpt>
      <trkpt lat="52.351800" lon="-1.987570">
       <ele>197.51</ele>
       <time>2023-09-20T17:15:15Z</time>
      </trkpt>
      <trkpt lat="52.349310" lon="-1.989830">
       <ele>195.07</ele>
       <time>2023-09-20T17:16:14Z</time>
      </trkpt>
      <trkpt lat="52.347110" lon="-1.992010">
       <ele>184.3</ele>
       <time>2023-09-20T17:17:08Z</time>
      </trkpt>
      <trkpt lat="52.346510" lon="-1.992960">
       <ele>179.8</ele>
       <time>2023-09-20T17:17:25Z</time>
      </trkpt>
      <trkpt lat="52.346420" lon="-1.993380">
       <ele>178.63</ele>
       <time>2023-09-20T17:17:31Z</time>
      </trkpt>
      <trkpt lat="52.345610" lon="-1.995190">
       <ele>182.57</ele>
       <time>2023-09-20T17:17:59Z</time>
      </trkpt>
      <trkpt lat="52.345350" lon="-1.996020">
       <ele>179.3</ele>
       <time>2023-09-20T17:18:11Z</time>
      </trkpt>
      <trkpt lat="52.345000" lon="-1.999100">
       <ele>166.16</ele>
       <time>2023-09-20T17:18:51Z</time>
      </trkpt>
      <trkpt lat="52.344530" lon="-2.001460">
       <ele>161.45</ele>
       <time>2023-09-20T17:19:22Z</time>
      </trkpt>
      <trkpt lat="52.343410" lon="-2.003210">
       <ele>155.73</ele>
       <time>2023-09-20T17:19:54Z</time>
      </trkpt>
      <trkpt lat="52.342250" lon="-2.004590">
       <ele>156.36</ele>
       <time>2023-09-20T17:20:24Z</time>
      </trkpt>
      <trkpt lat="52.341060" lon="-2.006370">
       <ele>158.36</ele>
       <time>2023-09-20T17:20:57Z</time>
      </trkpt>
      <trkpt lat="52.340220" lon="-2.008710">
       <ele>158.84</ele>
       <time>2023-09-20T17:21:32Z</time>
      </trkpt>
      <trkpt lat="52.340280" lon="-2.012750">
       <ele>164.33</ele>
       <time>2023-09-20T17:22:23Z</time>
      </trkpt>
      <trkpt lat="52.340390" lon="-2.013160">
       <ele>164.06</ele>
       <time>2023-09-20T17:22:29Z</time>
      </trkpt>
      <trkpt lat="52.340530" lon="-2.014530">
       <ele>160.74</ele>
       <time>2023-09-20T17:22:46Z</time>
      </trkpt>
      <trkpt lat="52.340840" lon="-2.015450">
       <ele>156.35</ele>
       <time>2023-09-20T17:22:59Z</time>
      </trkpt>
      <trkpt lat="52.341310" lon="-2.015970">
       <ele>152.98</ele>
       <time>2023-09-20T17:23:11Z</time>
      </trkpt>
      <trkpt lat="52.341520" lon="-2.016390">
       <ele>151.62</ele>
       <time>2023-09-20T17:23:18Z</time>
      </trkpt>
      <trkpt lat="52.341700" lon="-2.017070">
       <ele>151.14</ele>
       <time>2023-09-20T17:23:27Z</time>
      </trkpt>
      <trkpt lat="52.341790" lon="-2.018060">
       <ele>151.34</ele>
       <time>2023-09-20T17:23:40Z</time>
      </trkpt>
      <trkpt lat="52.342070" lon="-2.018660">
       <ele>150.41</ele>
       <time>2023-09-20T17:23:50Z</time>
      </trkpt>
      <trkpt lat="52.342180" lon="-2.019860">
       <ele>145.31</ele>
       <time>2023-09-20T17:24:05Z</time>
      </trkpt>
      <trkpt lat="52.342510" lon="-2.020430">
       <ele>142.47</ele>
       <time>2023-09-20T17:24:15Z</time>
      </trkpt>
      <trkpt lat="52.342730" lon="-2.021130">
       <ele>140.84</ele>
       <time>2023-09-20T17:24:25Z</time>
      </trkpt>
      <trkpt lat="52.342460" lon="-2.023980">
       <ele>133.55</ele>
       <time>2023-09-20T17:25:02Z</time>
      </trkpt>
      <trkpt lat="52.342310" lon="-2.023830">
       <ele>134.36</ele>
       <time>2023-09-20T17:25:05Z</time>
      </trkpt>
      <trkpt lat="52.342060" lon="-2.024210">
       <ele>133.95</ele>
       <time>2023-09-20T17:25:12Z</time>
      </trkpt>
      <trkpt lat="52.341550" lon="-2.024660">
       <ele>134.74</ele>
       <time>2023-09-20T17:25:24Z</time>
      </trkpt>
      <trkpt lat="52.340780" lon="-2.025190">
       <ele>139.75</ele>
       <time>2023-09-20T17:25:42Z</time>
      </trkpt>
      <trkpt lat="52.340220" lon="-2.025410">
       <ele>141.59</ele>
       <time>2023-09-20T17:25:54Z</time>
      </trkpt>
      <trkpt lat="52.339870" lon="-2.025410">
       <ele>142.81</ele>
       <time>2023-09-20T17:26:01Z</time>
      </trkpt>
      <trkpt lat="52.338760" lon="-2.024980">
       <ele>138.56</ele>
       <time>2023-09-20T17:26:24Z</time>
      </trkpt>
      <trkpt lat="52.338430" lon="-2.024990">
       <ele>137.37</ele>
       <time>2023-09-20T17:26:31Z</time>
      </trkpt>
      <trkpt lat="52.338200" lon="-2.025070">
       <ele>138.35</ele>
       <time>2023-09-20T17:26:36Z</time>
      </trkpt>
      <trkpt lat="52.337110" lon="-2.025820">
       <ele>142.47</ele>
       <time>2023-09-20T17:27:01Z</time>
      </trkpt>
      <trkpt lat="52.336850" lon="-2.026060">
       <ele>141.85</ele>
       <time>2023-09-20T17:27:07Z</time>
      </trkpt>
      <trkpt lat="52.335840" lon="-2.027540">
       <ele>132.73</ele>
       <time>2023-09-20T17:27:35Z</time>
      </trkpt>
      <trkpt lat="52.334240" lon="-2.030030">
       <ele>122.81</ele>
       <time>2023-09-20T17:28:21Z</time>
      </trkpt>
      <trkpt lat="52.333960" lon="-2.029710">
       <ele>122.5</ele>
       <time>2023-09-20T17:28:28Z</time>
      </trkpt>
      <trkpt lat="52.333740" lon="-2.029710">
       <ele>121.98</ele>
       <time>2023-09-20T17:28:32Z</time>
      </trkpt>
      <trkpt lat="52.332810" lon="-2.030500">
       <ele>116.79</ele>
       <time>2023-09-20T17:28:54Z</time>
      </trkpt>
      <trkpt lat="52.331840" lon="-2.031010">
       <ele>113.42</ele>
       <time>2023-09-20T17:29:15Z</time>
      </trkpt>
      <trkpt lat="52.330060" lon="-2.032380">
       <ele>110.28</ele>
       <time>2023-09-20T17:29:56Z</time>
      </trkpt>
      <trkpt lat="52.330210" lon="-2.033000">
       <ele>108.95</ele>
       <time>2023-09-20T17:30:05Z</time>
      </trkpt>
      <trkpt lat="52.329640" lon="-2.033420">
       <ele>108.13</ele>
       <time>2023-09-20T17:30:17Z</time>
      </trkpt>
      <trkpt lat="52.328460" lon="-2.034880">
       <ele>104.85</ele>
       <time>2023-09-20T17:30:48Z</time>
      </trkpt>
      <trkpt lat="52.328230" lon="-2.035380">
       <ele>104.21</ele>
       <time>2023-09-20T17:30:56Z</time>
      </trkpt>
      <trkpt lat="52.328050" lon="-2.035190">
       <ele>106.12</ele>
       <time>2023-09-20T17:31:01Z</time>
      </trkpt>
      <trkpt lat="52.326120" lon="-2.034340">
       <ele>114.34</ele>
       <time>2023-09-20T17:31:42Z</time>
      </trkpt>
      <trkpt lat="52.325170" lon="-2.033590">
       <ele>108.29</ele>
       <time>2023-09-20T17:32:04Z</time>
      </trkpt>
      <trkpt lat="52.324470" lon="-2.033380">
       <ele>103.18</ele>
       <time>2023-09-20T17:32:19Z</time>
      </trkpt>
      <trkpt lat="52.324280" lon="-2.032890">
       <ele>102.74</ele>
       <time>2023-09-20T17:32:26Z</time>
      </trkpt>
      <trkpt lat="52.324060" lon="-2.031730">
       <ele>103.97</ele>
       <time>2023-09-20T17:32:41Z</time>
      </trkpt>
      <trkpt lat="52.323890" lon="-2.031330">
       <ele>102.81</ele>
       <time>2023-09-20T17:32:47Z</time>
      </trkpt>
      <trkpt lat="52.323490" lon="-2.030930">
       <ele>100.03</ele>
       <time>2023-09-20T17:32:57Z</time>
      </trkpt>
      <trkpt lat="52.323230" lon="-2.031580">
       <ele>97.87</ele>
       <time>2023-09-20T17:33:07Z</time>
      </trkpt>
      <trkpt lat="52.322560" lon="-2.032690">
       <ele>96.14</ele>
       <time>2023-09-20T17:33:27Z</time>
      </trkpt>
      <trkpt lat="52.322190" lon="-2.034880">
       <ele>93.35</ele>
       <time>2023-09-20T17:33:56Z</time>
      </trkpt>
      <trkpt lat="52.322060" lon="-2.035230">
       <ele>92.54</ele>
       <time>2023-09-20T17:34:01Z</time>
      </trkpt>
      <trkpt lat="52.320810" lon="-2.037040">
       <ele>90.06</ele>
       <time>2023-09-20T17:34:35Z</time>
      </trkpt>
      <trkpt lat="52.320540" lon="-2.037650">
       <ele>88.47</ele>
       <time>2023-09-20T17:34:45Z</time>
      </trkpt>
      <trkpt lat="52.320190" lon="-2.038860">
       <ele>87.08</ele>
       <time>2023-09-20T17:35:02Z</time>
      </trkpt>
      <trkpt lat="52.319000" lon="-2.040280">
       <ele>86.53</ele>
       <time>2023-09-20T17:35:32Z</time>
      </trkpt>
      <trkpt lat="52.318520" lon="-2.041330">
       <ele>84.67</ele>
       <time>2023-09-20T17:35:49Z</time>
      </trkpt>
      <trkpt lat="52.318000" lon="-2.041050">
       <ele>83.9</ele>
       <time>2023-09-20T17:36:00Z</time>
      </trkpt>
      <trkpt lat="52.317580" lon="-2.040290">
       <ele>84.65</ele>
       <time>2023-09-20T17:36:13Z</time>
      </trkpt>
      <trkpt lat="52.315540" lon="-2.038180">
       <ele>94.89</ele>
       <time>2023-09-20T17:37:03Z</time>
      </trkpt>
      <trkpt lat="52.314280" lon="-2.037440">
       <ele>103.48</ele>
       <time>2023-09-20T17:37:31Z</time>
      </trkpt>
      <trkpt lat="52.313670" lon="-2.037630">
       <ele>104</ele>
       <time>2023-09-20T17:37:44Z</time>
      </trkpt>
      <trkpt lat="52.313590" lon="-2.037760">
       <ele>104</ele>
       <time>2023-09-20T17:37:46Z</time>
      </trkpt>
      <trkpt lat="52.313210" lon="-2.039390">
       <ele>103.56</ele>
       <time>2023-09-20T17:38:09Z</time>
      </trkpt>
      <trkpt lat="52.312150" lon="-2.038600">
       <ele>98.9</ele>
       <time>2023-09-20T17:38:33Z</time>
      </trkpt>
      <trkpt lat="52.310360" lon="-2.036850">
       <ele>97.59</ele>
       <time>2023-09-20T17:39:16Z</time>
      </trkpt>
      <trkpt lat="52.307020" lon="-2.034690">
       <ele>99.27</ele>
       <time>2023-09-20T17:40:30Z</time>
      </trkpt>
      <trkpt lat="52.306830" lon="-2.034730">
       <ele>98.59</ele>
       <time>2023-09-20T17:40:34Z</time>
      </trkpt>
      <trkpt lat="52.306510" lon="-2.035080">
       <ele>97.36</ele>
       <time>2023-09-20T17:40:42Z</time>
      </trkpt>
      <trkpt lat="52.305740" lon="-2.036180">
       <ele>94.89</ele>
       <time>2023-09-20T17:41:04Z</time>
      </trkpt>
      <trkpt lat="52.305440" lon="-2.036300">
       <ele>94.53</ele>
       <time>2023-09-20T17:41:10Z</time>
      </trkpt>
      <trkpt lat="52.305290" lon="-2.036280">
       <ele>94.35</ele>
       <time>2023-09-20T17:41:13Z</time>
      </trkpt>
      <trkpt lat="52.304930" lon="-2.035080">
       <ele>95.16</ele>
       <time>2023-09-20T17:41:30Z</time>
      </trkpt>
      <trkpt lat="52.304230" lon="-2.033440">
       <ele>99.71</ele>
       <time>2023-09-20T17:41:55Z</time>
      </trkpt>
      <trkpt lat="52.303330" lon="-2.030330">
       <ele>103.82</ele>
       <time>2023-09-20T17:42:39Z</time>
      </trkpt>
      <trkpt lat="52.303040" lon="-2.029900">
       <ele>106.33</ele>
       <time>2023-09-20T17:42:47Z</time>
      </trkpt>
      <trkpt lat="52.302570" lon="-2.029670">
       <ele>108.63</ele>
       <time>2023-09-20T17:42:57Z</time>
      </trkpt>
      <trkpt lat="52.302500" lon="-2.029460">
       <ele>109</ele>
       <time>2023-09-20T17:43:00Z</time>
      </trkpt>
      <trkpt lat="52.302410" lon="-2.028420">
       <ele>107.75</ele>
       <time>2023-09-20T17:43:14Z</time>
      </trkpt>
      <trkpt lat="52.301910" lon="-2.026070">
       <ele>105.71</ele>
       <time>2023-09-20T17:43:45Z</time>
      </trkpt>
      <trkpt lat="52.301080" lon="-2.024470">
       <ele>108.04</ele>
       <time>2023-09-20T17:44:12Z</time>
      </trkpt>
      <trkpt lat="52.300840" lon="-2.023560">
       <ele>109.71</ele>
       <time>2023-09-20T17:44:24Z</time>
      </trkpt>
      <trkpt lat="52.300480" lon="-2.021550">
       <ele>114.82</ele>
       <time>2023-09-20T17:44:51Z</time>
      </trkpt>
      <trkpt lat="52.300510" lon="-2.020560">
       <ele>118.28</ele>
       <time>2023-09-20T17:45:04Z</time>
      </trkpt>
      <trkpt lat="52.300320" lon="-2.018820">
       <ele>123.04</ele>
       <time>2023-09-20T17:45:26Z</time>
      </trkpt>
      <trkpt lat="52.300570" lon="-2.017670">
       <ele>123.24</ele>
       <time>2023-09-20T17:45:41Z</time>
      </trkpt>
      <trkpt lat="52.300580" lon="-2.016450">
       <ele>124.65</ele>
       <time>2023-09-20T17:45:57Z</time>
      </trkpt>
      <trkpt lat="52.300660" lon="-2.015910">
       <ele>125.49</ele>
       <time>2023-09-20T17:46:04Z</time>
      </trkpt>
      <trkpt lat="52.301370" lon="-2.013520">
       <ele>127.28</ele>
       <time>2023-09-20T17:46:38Z</time>
      </trkpt>
      <trkpt lat="52.302640" lon="-2.010520">
       <ele>126.17</ele>
       <time>2023-09-20T17:47:24Z</time>
      </trkpt>
      <trkpt lat="52.304010" lon="-2.008580">
       <ele>129.33</ele>
       <time>2023-09-20T17:48:01Z</time>
      </trkpt>
      <trkpt lat="52.304740" lon="-2.007200">
       <ele>134.8</ele>
       <time>2023-09-20T17:48:25Z</time>
      </trkpt>
      <trkpt lat="52.304910" lon="-2.005480">
       <ele>136.13</ele>
       <time>2023-09-20T17:48:47Z</time>
      </trkpt>
      <trkpt lat="52.305160" lon="-2.004410">
       <ele>136.88</ele>
       <time>2023-09-20T17:49:01Z</time>
      </trkpt>
      <trkpt lat="52.305650" lon="-2.004060">
       <ele>138.89</ele>
       <time>2023-09-20T17:49:12Z</time>
      </trkpt>
      <trkpt lat="52.306810" lon="-2.002680">
       <ele>137.49</ele>
       <time>2023-09-20T17:49:42Z</time>
      </trkpt>
      <trkpt lat="52.307060" lon="-2.002510">
       <ele>137.94</ele>
       <time>2023-09-20T17:49:48Z</time>
      </trkpt>
      <trkpt lat="52.307820" lon="-2.002220">
       <ele>141.34</ele>
       <time>2023-09-20T17:50:04Z</time>
      </trkpt>
      <trkpt lat="52.310580" lon="-2.000400">
       <ele>142.11</ele>
       <time>2023-09-20T17:51:06Z</time>
      </trkpt>
      <trkpt lat="52.311120" lon="-1.999910">
       <ele>140.03</ele>
       <time>2023-09-20T17:51:18Z</time>
      </trkpt>
      <trkpt lat="52.311570" lon="-1.999240">
       <ele>137.3</ele>
       <time>2023-09-20T17:51:31Z</time>
      </trkpt>
      <trkpt lat="52.312470" lon="-1.999050">
       <ele>136.85</ele>
       <time>2023-09-20T17:51:50Z</time>
      </trkpt>
      <trkpt lat="52.312800" lon="-1.998610">
       <ele>137.17</ele>
       <time>2023-09-20T17:51:59Z</time>
      </trkpt>
      <trkpt lat="52.313110" lon="-1.997750">
       <ele>139.78</ele>
       <time>2023-09-20T17:52:11Z</time>
      </trkpt>
      <trkpt lat="52.313300" lon="-1.997530">
       <ele>140.85</ele>
       <time>2023-09-20T17:52:16Z</time>
      </trkpt>
      <trkpt lat="52.314180" lon="-1.998180">
       <ele>142.22</ele>
       <time>2023-09-20T17:52:36Z</time>
      </trkpt>
      <trkpt lat="52.315110" lon="-1.998720">
       <ele>144.13</ele>
       <time>2023-09-20T17:52:57Z</time>
      </trkpt>
      <trkpt lat="52.315910" lon="-1.999370">
       <ele>147.03</ele>
       <time>2023-09-20T17:53:15Z</time>
      </trkpt>
      <trkpt lat="52.317360" lon="-2.001420">
       <ele>148.13</ele>
       <time>2023-09-20T17:53:55Z</time>
      </trkpt>
      <trkpt lat="52.317570" lon="-2.001590">
       <ele>148.42</ele>
       <time>2023-09-20T17:54:00Z</time>
      </trkpt>
      <trkpt lat="52.317780" lon="-2.001660">
       <ele>149.35</ele>
       <time>2023-09-20T17:54:04Z</time>
      </trkpt>
      <trkpt lat="52.318220" lon="-2.001630">
       <ele>151.46</ele>
       <time>2023-09-20T17:54:13Z</time>
      </trkpt>
      <trkpt lat="52.318240" lon="-2.001120">
       <ele>151.63</ele>
       <time>2023-09-20T17:54:20Z</time>
      </trkpt>
      <trkpt lat="52.318710" lon="-1.999620">
       <ele>152.9</ele>
       <time>2023-09-20T17:54:41Z</time>
      </trkpt>
      <trkpt lat="52.321790" lon="-2.001680">
       <ele>157.25</ele>
       <time>2023-09-20T17:55:50Z</time>
      </trkpt>
      <trkpt lat="52.323780" lon="-2.003420">
       <ele>157.87</ele>
       <time>2023-09-20T17:56:37Z</time>
      </trkpt>
      <trkpt lat="52.324640" lon="-2.003900">
       <ele>157.93</ele>
       <time>2023-09-20T17:56:56Z</time>
      </trkpt>
      <trkpt lat="52.324880" lon="-2.003560">
       <ele>157.4</ele>
       <time>2023-09-20T17:57:02Z</time>
      </trkpt>
      <trkpt lat="52.326530" lon="-2.002590">
       <ele>154.18</ele>
       <time>2023-09-20T17:57:39Z</time>
      </trkpt>
      <trkpt lat="52.327690" lon="-2.002190">
       <ele>147.74</ele>
       <time>2023-09-20T17:58:03Z</time>
      </trkpt>
      <trkpt lat="52.328500" lon="-2.002060">
       <ele>142.17</ele>
       <time>2023-09-20T17:58:20Z</time>
      </trkpt>
      <trkpt lat="52.328530" lon="-2.002470">
       <ele>142.72</ele>
       <time>2023-09-20T17:58:25Z</time>
      </trkpt>
      <trkpt lat="52.329190" lon="-2.002530">
       <ele>142.07</ele>
       <time>2023-09-20T17:58:39Z</time>
      </trkpt>
      <trkpt lat="52.330090" lon="-2.002760">
       <ele>142.79</ele>
       <time>2023-09-20T17:58:58Z</time>
      </trkpt>
      <trkpt lat="52.332060" lon="-2.003950">
       <ele>143.36</ele>
       <time>2023-09-20T17:59:41Z</time>
      </trkpt>
      <trkpt lat="52.332470" lon="-2.003800">
       <ele>142.7</ele>
       <time>2023-09-20T17:59:50Z</time>
      </trkpt>
      <trkpt lat="52.333500" lon="-2.003200">
       <ele>141.83</ele>
       <time>2023-09-20T18:00:13Z</time>
      </trkpt>
      <trkpt lat="52.333740" lon="-2.002480">
       <ele>142.01</ele>
       <time>2023-09-20T18:00:23Z</time>
      </trkpt>
      <trkpt lat="52.334500" lon="-2.001070">
       <ele>144.6</ele>
       <time>2023-09-20T18:00:47Z</time>
      </trkpt>
      <trkpt lat="52.335350" lon="-1.998600">
       <ele>148.55</ele>
       <time>2023-09-20T18:01:23Z</time>
      </trkpt>
      <trkpt lat="52.336480" lon="-1.996050">
       <ele>148.8</ele>
       <time>2023-09-20T18:02:03Z</time>
      </trkpt>
      <trkpt lat="52.337370" lon="-1.993510">
       <ele>155.32</ele>
       <time>2023-09-20T18:02:40Z</time>
      </trkpt>
      <trkpt lat="52.338070" lon="-1.990270">
       <ele>160.13</ele>
       <time>2023-09-20T18:03:23Z</time>
      </trkpt>
      <trkpt lat="52.338030" lon="-1.989010">
       <ele>161.65</ele>
       <time>2023-09-20T18:03:39Z</time>
      </trkpt>
      <trkpt lat="52.338810" lon="-1.985240">
       <ele>178.97</ele>
       <time>2023-09-20T18:04:30Z</time>
      </trkpt>
      <trkpt lat="52.339110" lon="-1.984530">
       <ele>182.82</ele>
       <time>2023-09-20T18:04:41Z</time>
      </trkpt>
      <trkpt lat="52.340120" lon="-1.982750">
       <ele>188.43</ele>
       <time>2023-09-20T18:05:12Z</time>
      </trkpt>
      <trkpt lat="52.340210" lon="-1.982670">
       <ele>188.76</ele>
       <time>2023-09-20T18:05:14Z</time>
      </trkpt>
      <trkpt lat="52.340340" lon="-1.982710">
       <ele>189.22</ele>
       <time>2023-09-20T18:05:16Z</time>
      </trkpt>
      <trkpt lat="52.341030" lon="-1.983300">
       <ele>190.99</ele>
       <time>2023-09-20T18:05:33Z</time>
      </trkpt>
      <trkpt lat="52.343030" lon="-1.984410">
       <ele>189.22</ele>
       <time>2023-09-20T18:06:16Z</time>
      </trkpt>
      <trkpt lat="52.344720" lon="-1.985040">
       <ele>190.12</ele>
       <time>2023-09-20T18:06:52Z</time>
      </trkpt>
      <trkpt lat="52.344740" lon="-1.984890">
       <ele>190.64</ele>
       <time>2023-09-20T18:06:54Z</time>
      </trkpt>
      <trkpt lat="52.344720" lon="-1.985040">
       <ele>190.12</ele>
       <time>2023-09-20T18:06:56Z</time>
      </trkpt>
      <trkpt lat="52.345730" lon="-1.985320">
       <ele>191.89</ele>
       <time>2023-09-20T18:07:17Z</time>
      </trkpt>
      <trkpt lat="52.346450" lon="-1.985870">
       <ele>193.13</ele>
       <time>2023-09-20T18:07:34Z</time>
      </trkpt>
      <trkpt lat="52.346560" lon="-1.982760">
       <ele>196.32</ele>
       <time>2023-09-20T18:08:13Z</time>
      </trkpt>
      <trkpt lat="52.347110" lon="-1.980910">
       <ele>187.45</ele>
       <time>2023-09-20T18:08:39Z</time>
      </trkpt>
      <trkpt lat="52.347420" lon="-1.978740">
       <ele>177.13</ele>
       <time>2023-09-20T18:09:08Z</time>
      </trkpt>
      <trkpt lat="52.347100" lon="-1.976850">
       <ele>168.26</ele>
       <time>2023-09-20T18:09:33Z</time>
      </trkpt>
      <trkpt lat="52.347040" lon="-1.974240">
       <ele>156.95</ele>
       <time>2023-09-20T18:10:06Z</time>
      </trkpt>
      <trkpt lat="52.347410" lon="-1.970910">
       <ele>142.96</ele>
       <time>2023-09-20T18:10:48Z</time>
      </trkpt>
      <trkpt lat="52.347650" lon="-1.969640">
       <ele>140.67</ele>
       <time>2023-09-20T18:11:05Z</time>
      </trkpt>
      <trkpt lat="52.347590" lon="-1.966750">
       <ele>136.99</ele>
       <time>2023-09-20T18:11:42Z</time>
      </trkpt>
      <trkpt lat="52.347860" lon="-1.964970">
       <ele>136.64</ele>
       <time>2023-09-20T18:12:05Z</time>
      </trkpt>
      <trkpt lat="52.348090" lon="-1.964430">
       <ele>137.94</ele>
       <time>2023-09-20T18:12:14Z</time>
      </trkpt>
      <trkpt lat="52.348280" lon="-1.964200">
       <ele>138.82</ele>
       <time>2023-09-20T18:12:18Z</time>
      </trkpt>
      <trkpt lat="52.348530" lon="-1.964080">
       <ele>138.97</ele>
       <time>2023-09-20T18:12:24Z</time>
      </trkpt>
      <trkpt lat="52.349320" lon="-1.964040">
       <ele>137.02</ele>
       <time>2023-09-20T18:12:40Z</time>
      </trkpt>
      <trkpt lat="52.349730" lon="-1.963920">
       <ele>135.78</ele>
       <time>2023-09-20T18:12:49Z</time>
      </trkpt>
      <trkpt lat="52.350220" lon="-1.963580">
       <ele>134.19</ele>
       <time>2023-09-20T18:13:00Z</time>
      </trkpt>
      <trkpt lat="52.350560" lon="-1.963140">
       <ele>131.82</ele>
       <time>2023-09-20T18:13:09Z</time>
      </trkpt>
      <trkpt lat="52.350860" lon="-1.962510">
       <ele>130.68</ele>
       <time>2023-09-20T18:13:19Z</time>
      </trkpt>
      <trkpt lat="52.351640" lon="-1.960140">
       <ele>121.47</ele>
       <time>2023-09-20T18:13:53Z</time>
      </trkpt>
      <trkpt lat="52.351750" lon="-1.959620">
       <ele>119.83</ele>
       <time>2023-09-20T18:14:00Z</time>
      </trkpt>
      <trkpt lat="52.351690" lon="-1.959490">
       <ele>119.71</ele>
       <time>2023-09-20T18:14:02Z</time>
      </trkpt>
      <trkpt lat="52.351850" lon="-1.959170">
       <ele>118.57</ele>
       <time>2023-09-20T18:14:07Z</time>
      </trkpt>
      <trkpt lat="52.351670" lon="-1.958500">
       <ele>116.6</ele>
       <time>2023-09-20T18:14:17Z</time>
      </trkpt>
      <trkpt lat="52.351670" lon="-1.958180">
       <ele>116</ele>
       <time>2023-09-20T18:14:21Z</time>
      </trkpt>
      <trkpt lat="52.352000" lon="-1.957170">
       <ele>116.72</ele>
       <time>2023-09-20T18:14:35Z</time>
      </trkpt>
      <trkpt lat="52.353170" lon="-1.955330">
       <ele>120.29</ele>
       <time>2023-09-20T18:15:09Z</time>
      </trkpt>
      <trkpt lat="52.355140" lon="-1.953510">
       <ele>119.22</ele>
       <time>2023-09-20T18:15:56Z</time>
      </trkpt>
      <trkpt lat="52.356370" lon="-1.952090">
       <ele>123.1</ele>
       <time>2023-09-20T18:16:27Z</time>
      </trkpt>
      <trkpt lat="52.357280" lon="-1.950720">
       <ele>125.84</ele>
       <time>2023-09-20T18:16:53Z</time>
      </trkpt>
      <trkpt lat="52.357790" lon="-1.949420">
       <ele>127</ele>
       <time>2023-09-20T18:17:12Z</time>
      </trkpt>
      <trkpt lat="52.358400" lon="-1.947650">
       <ele>126.97</ele>
       <time>2023-09-20T18:17:38Z</time>
      </trkpt>
      <trkpt lat="52.358690" lon="-1.946110">
       <ele>127.95</ele>
       <time>2023-09-20T18:17:58Z</time>
      </trkpt>
      <trkpt lat="52.358540" lon="-1.941470">
       <ele>119.18</ele>
       <time>2023-09-20T18:18:57Z</time>
      </trkpt>
      <trkpt lat="52.358910" lon="-1.939010">
       <ele>120</ele>
       <time>2023-09-20T18:19:29Z</time>
      </trkpt>
      <trkpt lat="52.358850" lon="-1.937590">
       <ele>120.93</ele>
       <time>2023-09-20T18:19:47Z</time>
      </trkpt>
      <trkpt lat="52.359110" lon="-1.936080">
       <ele>124.11</ele>
       <time>2023-09-20T18:20:07Z</time>
      </trkpt>
      <trkpt lat="52.359320" lon="-1.935410">
       <ele>127.12</ele>
       <time>2023-09-20T18:20:17Z</time>
      </trkpt>
      <trkpt lat="52.359500" lon="-1.935140">
       <ele>128.4</ele>
       <time>2023-09-20T18:20:22Z</time>
      </trkpt>
      <trkpt lat="52.361230" lon="-1.933310">
       <ele>134.63</ele>
       <time>2023-09-20T18:21:04Z</time>
      </trkpt>
      <trkpt lat="52.362040" lon="-1.931270">
       <ele>138.27</ele>
       <time>2023-09-20T18:21:35Z</time>
      </trkpt>
      <trkpt lat="52.362410" lon="-1.930540">
       <ele>141.12</ele>
       <time>2023-09-20T18:21:47Z</time>
      </trkpt>
      <trkpt lat="52.362840" lon="-1.929970">
       <ele>142.62</ele>
       <time>2023-09-20T18:21:59Z</time>
      </trkpt>
      <trkpt lat="52.363870" lon="-1.929020">
       <ele>143.03</ele>
       <time>2023-09-20T18:22:23Z</time>
      </trkpt>
      <trkpt lat="52.364190" lon="-1.928380">
       <ele>144.39</ele>
       <time>2023-09-20T18:22:34Z</time>
      </trkpt>
      <trkpt lat="52.364400" lon="-1.926640">
       <ele>147.92</ele>
       <time>2023-09-20T18:22:56Z</time>
      </trkpt>
      <trkpt lat="52.364240" lon="-1.925250">
       <ele>149.46</ele>
       <time>2023-09-20T18:23:14Z</time>
      </trkpt>
      <trkpt lat="52.364230" lon="-1.924020">
       <ele>149.49</ele>
       <time>2023-09-20T18:23:30Z</time>
      </trkpt>
      <trkpt lat="52.364390" lon="-1.922880">
       <ele>148.01</ele>
       <time>2023-09-20T18:23:44Z</time>
      </trkpt>
      <trkpt lat="52.364670" lon="-1.921960">
       <ele>146.67</ele>
       <time>2023-09-20T18:23:57Z</time>
      </trkpt>
      <trkpt lat="52.364800" lon="-1.919930">
       <ele>149.62</ele>
       <time>2023-09-20T18:24:23Z</time>
      </trkpt>
      <trkpt lat="52.364440" lon="-1.917720">
       <ele>155.51</ele>
       <time>2023-09-20T18:24:52Z</time>
      </trkpt>
      <trkpt lat="52.364420" lon="-1.916230">
       <ele>164.72</ele>
       <time>2023-09-20T18:25:11Z</time>
      </trkpt>
      <trkpt lat="52.364440" lon="-1.917720">
       <ele>155.51</ele>
       <time>2023-09-20T18:25:30Z</time>
      </trkpt>
      <trkpt lat="52.364630" lon="-1.918780">
       <ele>151.48</ele>
       <time>2023-09-20T18:25:44Z</time>
      </trkpt>
      <trkpt lat="52.363790" lon="-1.918850">
       <ele>148.95</ele>
       <time>2023-09-20T18:26:01Z</time>
      </trkpt>
      <trkpt lat="52.362340" lon="-1.918630">
       <ele>143.58</ele>
       <time>2023-09-20T18:26:32Z</time>
      </trkpt>
      <trkpt lat="52.361540" lon="-1.918420">
       <ele>143.49</ele>
       <time>2023-09-20T18:26:48Z</time>
      </trkpt>
      <trkpt lat="52.360250" lon="-1.918350">
       <ele>139.17</ele>
       <time>2023-09-20T18:27:15Z</time>
      </trkpt>
      <trkpt lat="52.358350" lon="-1.918100">
       <ele>136.02</ele>
       <time>2023-09-20T18:27:55Z</time>
      </trkpt>
      <trkpt lat="52.354780" lon="-1.917330">
       <ele>140.44</ele>
       <time>2023-09-20T18:29:09Z</time>
      </trkpt>
      <trkpt lat="52.353330" lon="-1.917290">
       <ele>131.74</ele>
       <time>2023-09-20T18:29:39Z</time>
      </trkpt>
      <trkpt lat="52.350620" lon="-1.916880">
       <ele>126.04</ele>
       <time>2023-09-20T18:30:36Z</time>
      </trkpt>
      <trkpt lat="52.348600" lon="-1.916470">
       <ele>123.68</ele>
       <time>2023-09-20T18:31:18Z</time>
      </trkpt>
      <trkpt lat="52.348140" lon="-1.916530">
       <ele>124.85</ele>
       <time>2023-09-20T18:31:28Z</time>
      </trkpt>
      <trkpt lat="52.346300" lon="-1.916110">
       <ele>129.89</ele>
       <time>2023-09-20T18:32:06Z</time>
      </trkpt>
      <trkpt lat="52.345970" lon="-1.916110">
       <ele>129.49</ele>
       <time>2023-09-20T18:32:13Z</time>
      </trkpt>
      <trkpt lat="52.345740" lon="-1.916210">
       <ele>129.58</ele>
       <time>2023-09-20T18:32:18Z</time>
      </trkpt>
      <trkpt lat="52.345410" lon="-1.916030">
       <ele>127.93</ele>
       <time>2023-09-20T18:32:25Z</time>
      </trkpt>
      <trkpt lat="52.344140" lon="-1.915820">
       <ele>123.9</ele>
       <time>2023-09-20T18:32:52Z</time>
      </trkpt>
      <trkpt lat="52.340980" lon="-1.915460">
       <ele>125.27</ele>
       <time>2023-09-20T18:33:57Z</time>
      </trkpt>
      <trkpt lat="52.339580" lon="-1.914680">
       <ele>123.61</ele>
       <time>2023-09-20T18:34:28Z</time>
      </trkpt>
      <trkpt lat="52.339390" lon="-1.914170">
       <ele>122.54</ele>
       <time>2023-09-20T18:34:35Z</time>
      </trkpt>
      <trkpt lat="52.339170" lon="-1.914310">
       <ele>122.18</ele>
       <time>2023-09-20T18:34:40Z</time>
      </trkpt>
      <trkpt lat="52.338870" lon="-1.914210">
       <ele>121.68</ele>
       <time>2023-09-20T18:34:47Z</time>
      </trkpt>
      <trkpt lat="52.334660" lon="-1.911610">
       <ele>107.33</ele>
       <time>2023-09-20T18:36:20Z</time>
      </trkpt>
      <trkpt lat="52.332500" lon="-1.910420">
       <ele>102</ele>
       <time>2023-09-20T18:37:07Z</time>
      </trkpt>
      <trkpt lat="52.330840" lon="-1.909190">
       <ele>103.96</ele>
       <time>2023-09-20T18:37:45Z</time>
      </trkpt>
      <trkpt lat="52.330220" lon="-1.908900">
       <ele>104.56</ele>
       <time>2023-09-20T18:37:58Z</time>
      </trkpt>
      <trkpt lat="52.328790" lon="-1.908920">
       <ele>102.73</ele>
       <time>2023-09-20T18:38:28Z</time>
      </trkpt>
      <trkpt lat="52.324160" lon="-1.909490">
       <ele>113.84</ele>
       <time>2023-09-20T18:40:04Z</time>
      </trkpt>
      <trkpt lat="52.323370" lon="-1.909470">
       <ele>114.86</ele>
       <time>2023-09-20T18:40:21Z</time>
      </trkpt>
      <trkpt lat="52.324060" lon="-1.905100">
       <ele>144.41</ele>
       <time>2023-09-20T18:41:18Z</time>
      </trkpt>
      <trkpt lat="52.324140" lon="-1.903870">
       <ele>141.32</ele>
       <time>2023-09-20T18:41:34Z</time>
      </trkpt>
      <trkpt lat="52.323890" lon="-1.899080">
       <ele>116.36</ele>
       <time>2023-09-20T18:42:35Z</time>
      </trkpt>
      <trkpt lat="52.323850" lon="-1.894920">
       <ele>106.62</ele>
       <time>2023-09-20T18:43:27Z</time>
      </trkpt>
      <trkpt lat="52.323700" lon="-1.893490">
       <ele>106.8</ele>
       <time>2023-09-20T18:43:46Z</time>
      </trkpt>
      <trkpt lat="52.323520" lon="-1.892650">
       <ele>107.08</ele>
       <time>2023-09-20T18:43:57Z</time>
      </trkpt>
      <trkpt lat="52.323620" lon="-1.892090">
       <ele>107.84</ele>
       <time>2023-09-20T18:44:04Z</time>
      </trkpt>
      <trkpt lat="52.323840" lon="-1.891490">
       <ele>109.29</ele>
       <time>2023-09-20T18:44:13Z</time>
      </trkpt>
      <trkpt lat="52.324600" lon="-1.890660">
       <ele>113.1</ele>
       <time>2023-09-20T18:44:32Z</time>
      </trkpt>
      <trkpt lat="52.325380" lon="-1.889150">
       <ele>116.06</ele>
       <time>2023-09-20T18:44:57Z</time>
      </trkpt>
      <trkpt lat="52.325710" lon="-1.888850">
       <ele>117.14</ele>
       <time>2023-09-20T18:45:05Z</time>
      </trkpt>
      <trkpt lat="52.326430" lon="-1.888580">
       <ele>120.05</ele>
       <time>2023-09-20T18:45:20Z</time>
      </trkpt>
      <trkpt lat="52.326720" lon="-1.888300">
       <ele>121.89</ele>
       <time>2023-09-20T18:45:27Z</time>
      </trkpt>
      <trkpt lat="52.327720" lon="-1.886090">
       <ele>124.22</ele>
       <time>2023-09-20T18:46:02Z</time>
      </trkpt>
      <trkpt lat="52.327780" lon="-1.885340">
       <ele>125.86</ele>
       <time>2023-09-20T18:46:12Z</time>
      </trkpt>
      <trkpt lat="52.327530" lon="-1.882160">
       <ele>133.95</ele>
       <time>2023-09-20T18:46:52Z</time>
      </trkpt>
      <trkpt lat="52.327590" lon="-1.881230">
       <ele>135.54</ele>
       <time>2023-09-20T18:47:04Z</time>
      </trkpt>
      <trkpt lat="52.327740" lon="-1.880790">
       <ele>136.44</ele>
       <time>2023-09-20T18:47:11Z</time>
      </trkpt>
      <trkpt lat="52.328260" lon="-1.880010">
       <ele>139.56</ele>
       <time>2023-09-20T18:47:25Z</time>
      </trkpt>
      <trkpt lat="52.328520" lon="-1.879780">
       <ele>141</ele>
       <time>2023-09-20T18:47:31Z</time>
      </trkpt>
      <trkpt lat="52.329380" lon="-1.879280">
       <ele>144.59</ele>
       <time>2023-09-20T18:47:50Z</time>
      </trkpt>
      <trkpt lat="52.330460" lon="-1.878830">
       <ele>148.67</ele>
       <time>2023-09-20T18:48:13Z</time>
      </trkpt>
      <trkpt lat="52.330850" lon="-1.878280">
       <ele>149.18</ele>
       <time>2023-09-20T18:48:24Z</time>
      </trkpt>
      <trkpt lat="52.331520" lon="-1.875780">
       <ele>156.79</ele>
       <time>2023-09-20T18:48:59Z</time>
      </trkpt>
      <trkpt lat="52.331590" lon="-1.873430">
       <ele>160.87</ele>
       <time>2023-09-20T18:49:28Z</time>
      </trkpt>
      <trkpt lat="52.331750" lon="-1.872050">
       <ele>163.03</ele>
       <time>2023-09-20T18:49:46Z</time>
      </trkpt>
      <trkpt lat="52.332180" lon="-1.871300">
       <ele>163.38</ele>
       <time>2023-09-20T18:49:59Z</time>
      </trkpt>
      <trkpt lat="52.332120" lon="-1.871010">
       <ele>163.46</ele>
       <time>2023-09-20T18:50:03Z</time>
      </trkpt>
      <trkpt lat="52.331640" lon="-1.870590">
       <ele>164.32</ele>
       <time>2023-09-20T18:50:14Z</time>
      </trkpt>
      <trkpt lat="52.331570" lon="-1.870190">
       <ele>164.89</ele>
       <time>2023-09-20T18:50:20Z</time>
      </trkpt>
      <trkpt lat="52.331640" lon="-1.869350">
       <ele>165.81</ele>
       <time>2023-09-20T18:50:30Z</time>
      </trkpt>
      <trkpt lat="52.331920" lon="-1.867950">
       <ele>166.24</ele>
       <time>2023-09-20T18:50:49Z</time>
      </trkpt>
      <trkpt lat="52.332180" lon="-1.867160">
       <ele>164.98</ele>
       <time>2023-09-20T18:51:01Z</time>
      </trkpt>
      <trkpt lat="52.333280" lon="-1.864710">
       <ele>164.13</ele>
       <time>2023-09-20T18:51:39Z</time>
      </trkpt>
      <trkpt lat="52.332080" lon="-1.860190">
       <ele>167.51</ele>
       <time>2023-09-20T18:52:41Z</time>
      </trkpt>
      <trkpt lat="52.331420" lon="-1.858530">
       <ele>166.53</ele>
       <time>2023-09-20T18:53:07Z</time>
      </trkpt>
      <trkpt lat="52.331420" lon="-1.857930">
       <ele>166.15</ele>
       <time>2023-09-20T18:53:14Z</time>
      </trkpt>
      <trkpt lat="52.331750" lon="-1.856560">
       <ele>165.64</ele>
       <time>2023-09-20T18:53:33Z</time>
      </trkpt>
      <trkpt lat="52.331660" lon="-1.855700">
       <ele>163.5</ele>
       <time>2023-09-20T18:53:44Z</time>
      </trkpt>
      <trkpt lat="52.331310" lon="-1.853920">
       <ele>156.09</ele>
       <time>2023-09-20T18:54:08Z</time>
      </trkpt>
      <trkpt lat="52.331090" lon="-1.853260">
       <ele>153.19</ele>
       <time>2023-09-20T18:54:17Z</time>
      </trkpt>
      <trkpt lat="52.330440" lon="-1.851840">
       <ele>153.55</ele>
       <time>2023-09-20T18:54:40Z</time>
      </trkpt>
      <trkpt lat="52.330240" lon="-1.851580">
       <ele>155.3</ele>
       <time>2023-09-20T18:54:45Z</time>
      </trkpt>
      <trkpt lat="52.329460" lon="-1.850960">
       <ele>159.04</ele>
       <time>2023-09-20T18:55:03Z</time>
      </trkpt>
      <trkpt lat="52.329170" lon="-1.850570">
       <ele>159.36</ele>
       <time>2023-09-20T18:55:11Z</time>
      </trkpt>
      <trkpt lat="52.327980" lon="-1.848430">
       <ele>158.22</ele>
       <time>2023-09-20T18:55:47Z</time>
      </trkpt>
      <trkpt lat="52.327580" lon="-1.847540">
       <ele>159.71</ele>
       <time>2023-09-20T18:56:01Z</time>
      </trkpt>
      <trkpt lat="52.327010" lon="-1.845700">
       <ele>160.04</ele>
       <time>2023-09-20T18:56:27Z</time>
      </trkpt>
      <trkpt lat="52.326740" lon="-1.844070">
       <ele>159.63</ele>
       <time>2023-09-20T18:56:49Z</time>
      </trkpt>
      <trkpt lat="52.326720" lon="-1.840950">
       <ele>153.28</ele>
       <time>2023-09-20T18:57:28Z</time>
      </trkpt>
      <trkpt lat="52.326420" lon="-1.839090">
       <ele>149.32</ele>
       <time>2023-09-20T18:57:53Z</time>
      </trkpt>
      <trkpt lat="52.325920" lon="-1.837490">
       <ele>149.24</ele>
       <time>2023-09-20T18:58:16Z</time>
      </trkpt>
      <trkpt lat="52.325730" lon="-1.837110">
       <ele>149.08</ele>
       <time>2023-09-20T18:58:22Z</time>
      </trkpt>
      <trkpt lat="52.325270" lon="-1.836690">
       <ele>150.43</ele>
       <time>2023-09-20T18:58:33Z</time>
      </trkpt>
      <trkpt lat="52.324550" lon="-1.835130">
       <ele>149.01</ele>
       <time>2023-09-20T18:58:57Z</time>
      </trkpt>
      <trkpt lat="52.323990" lon="-1.834540">
       <ele>143.85</ele>
       <time>2023-09-20T18:59:11Z</time>
      </trkpt>
      <trkpt lat="52.322610" lon="-1.833740">
       <ele>128.59</ele>
       <time>2023-09-20T18:59:42Z</time>
      </trkpt>
      <trkpt lat="52.322200" lon="-1.833350">
       <ele>123.9</ele>
       <time>2023-09-20T18:59:51Z</time>
      </trkpt>
      <trkpt lat="52.321490" lon="-1.832460">
       <ele>119.82</ele>
       <time>2023-09-20T19:00:10Z</time>
      </trkpt>
      <trkpt lat="52.321140" lon="-1.832200">
       <ele>119.27</ele>
       <time>2023-09-20T19:00:18Z</time>
      </trkpt>
      <trkpt lat="52.319370" lon="-1.832010">
       <ele>125.01</ele>
       <time>2023-09-20T19:00:55Z</time>
      </trkpt>
      <trkpt lat="52.318130" lon="-1.831480">
       <ele>131.43</ele>
       <time>2023-09-20T19:01:21Z</time>
      </trkpt>
      <trkpt lat="52.317680" lon="-1.831370">
       <ele>132.29</ele>
       <time>2023-09-20T19:01:31Z</time>
      </trkpt>
      <trkpt lat="52.314730" lon="-1.831280">
       <ele>148.84</ele>
       <time>2023-09-20T19:02:32Z</time>
      </trkpt>
      <trkpt lat="52.313000" lon="-1.830850">
       <ele>145.98</ele>
       <time>2023-09-20T19:03:08Z</time>
      </trkpt>
      <trkpt lat="52.312410" lon="-1.830430">
       <ele>142.62</ele>
       <time>2023-09-20T19:03:22Z</time>
      </trkpt>
      <trkpt lat="52.311870" lon="-1.829310">
       <ele>139.15</ele>
       <time>2023-09-20T19:03:40Z</time>
      </trkpt>
      <trkpt lat="52.311670" lon="-1.829050">
       <ele>137.88</ele>
       <time>2023-09-20T19:03:45Z</time>
      </trkpt>
      <trkpt lat="52.310700" lon="-1.828440">
       <ele>134.29</ele>
       <time>2023-09-20T19:04:06Z</time>
      </trkpt>
      <trkpt lat="52.308990" lon="-1.826480">
       <ele>133.79</ele>
       <time>2023-09-20T19:04:50Z</time>
      </trkpt>
      <trkpt lat="52.306840" lon="-1.825200">
       <ele>124.53</ele>
       <time>2023-09-20T19:05:37Z</time>
      </trkpt>
      <trkpt lat="52.306650" lon="-1.825200">
       <ele>123.89</ele>
       <time>2023-09-20T19:05:41Z</time>
      </trkpt>
      <trkpt lat="52.306510" lon="-1.825300">
       <ele>123.74</ele>
       <time>2023-09-20T19:05:44Z</time>
      </trkpt>
      <trkpt lat="52.305960" lon="-1.824270">
       <ele>118.7</ele>
       <time>2023-09-20T19:06:02Z</time>
      </trkpt>
      <trkpt lat="52.305150" lon="-1.823360">
       <ele>112.64</ele>
       <time>2023-09-20T19:06:22Z</time>
      </trkpt>
      <trkpt lat="52.304310" lon="-1.822580">
       <ele>109.44</ele>
       <time>2023-09-20T19:06:42Z</time>
      </trkpt>
      <trkpt lat="52.302810" lon="-1.821630">
       <ele>103.77</ele>
       <time>2023-09-20T19:07:15Z</time>
      </trkpt>
      <trkpt lat="52.301810" lon="-1.820630">
       <ele>104.49</ele>
       <time>2023-09-20T19:07:40Z</time>
      </trkpt>
      <trkpt lat="52.300740" lon="-1.819290">
       <ele>104.85</ele>
       <time>2023-09-20T19:08:08Z</time>
      </trkpt>
      <trkpt lat="52.299410" lon="-1.817050">
       <ele>110.41</ele>
       <time>2023-09-20T19:08:47Z</time>
      </trkpt>
      <trkpt lat="52.298900" lon="-1.815630">
       <ele>113.57</ele>
       <time>2023-09-20T19:09:08Z</time>
      </trkpt>
      <trkpt lat="52.298330" lon="-1.812620">
       <ele>112.99</ele>
       <time>2023-09-20T19:09:48Z</time>
      </trkpt>
      <trkpt lat="52.298170" lon="-1.812140">
       <ele>112.15</ele>
       <time>2023-09-20T19:09:55Z</time>
      </trkpt>
      <trkpt lat="52.297250" lon="-1.810620">
       <ele>104.63</ele>
       <time>2023-09-20T19:10:22Z</time>
      </trkpt>
      <trkpt lat="52.295850" lon="-1.807930">
       <ele>92.56</ele>
       <time>2023-09-20T19:11:07Z</time>
      </trkpt>
      <trkpt lat="52.294670" lon="-1.806800">
       <ele>92.46</ele>
       <time>2023-09-20T19:11:35Z</time>
      </trkpt>
      <trkpt lat="52.294090" lon="-1.806040">
       <ele>95.28</ele>
       <time>2023-09-20T19:11:51Z</time>
      </trkpt>
      <trkpt lat="52.293960" lon="-1.805700">
       <ele>95.7</ele>
       <time>2023-09-20T19:11:56Z</time>
      </trkpt>
      <trkpt lat="52.293420" lon="-1.802390">
       <ele>91.41</ele>
       <time>2023-09-20T19:12:39Z</time>
      </trkpt>
      <trkpt lat="52.293020" lon="-1.801350">
       <ele>88.47</ele>
       <time>2023-09-20T19:12:55Z</time>
      </trkpt>
      <trkpt lat="52.292090" lon="-1.800200">
       <ele>85.47</ele>
       <time>2023-09-20T19:13:19Z</time>
      </trkpt>
      <trkpt lat="52.291430" lon="-1.799070">
       <ele>84.6</ele>
       <time>2023-09-20T19:13:39Z</time>
      </trkpt>
      <trkpt lat="52.290930" lon="-1.798560">
       <ele>83.39</ele>
       <time>2023-09-20T19:13:51Z</time>
      </trkpt>
      <trkpt lat="52.290260" lon="-1.798070">
       <ele>83</ele>
       <time>2023-09-20T19:14:06Z</time>
      </trkpt>
      <trkpt lat="52.289720" lon="-1.797140">
       <ele>84.25</ele>
       <time>2023-09-20T19:14:22Z</time>
      </trkpt>
      <trkpt lat="52.287680" lon="-1.794370">
       <ele>81.27</ele>
       <time>2023-09-20T19:15:17Z</time>
      </trkpt>
      <trkpt lat="52.287230" lon="-1.793380">
       <ele>77.75</ele>
       <time>2023-09-20T19:15:33Z</time>
      </trkpt>
      <trkpt lat="52.287070" lon="-1.792670">
       <ele>77.48</ele>
       <time>2023-09-20T19:15:43Z</time>
      </trkpt>
      <trkpt lat="52.286850" lon="-1.790390">
       <ele>75.79</ele>
       <time>2023-09-20T19:16:12Z</time>
      </trkpt>
      <trkpt lat="52.286630" lon="-1.789410">
       <ele>75.04</ele>
       <time>2023-09-20T19:16:25Z</time>
      </trkpt>
      <trkpt lat="52.286610" lon="-1.788720">
       <ele>74.57</ele>
       <time>2023-09-20T19:16:34Z</time>
      </trkpt>
      <trkpt lat="52.286810" lon="-1.786650">
       <ele>76.49</ele>
       <time>2023-09-20T19:17:01Z</time>
      </trkpt>
      <trkpt lat="52.287120" lon="-1.785370">
       <ele>77.31</ele>
       <time>2023-09-20T19:17:18Z</time>
      </trkpt>
      <trkpt lat="52.287480" lon="-1.783000">
       <ele>77.05</ele>
       <time>2023-09-20T19:17:49Z</time>
      </trkpt>
      <trkpt lat="52.287540" lon="-1.781330">
       <ele>75.77</ele>
       <time>2023-09-20T19:18:10Z</time>
      </trkpt>
      <trkpt lat="52.287680" lon="-1.780520">
       <ele>74.81</ele>
       <time>2023-09-20T19:18:21Z</time>
      </trkpt>
      <trkpt lat="52.287450" lon="-1.777150">
       <ele>72.61</ele>
       <time>2023-09-20T19:19:04Z</time>
      </trkpt>
      <trkpt lat="52.287350" lon="-1.776750">
       <ele>72.26</ele>
       <time>2023-09-20T19:19:09Z</time>
      </trkpt>
      <trkpt lat="52.286680" lon="-1.775170">
       <ele>74.76</ele>
       <time>2023-09-20T19:19:34Z</time>
      </trkpt>
      <trkpt lat="52.286570" lon="-1.774520">
       <ele>77.6</ele>
       <time>2023-09-20T19:19:42Z</time>
      </trkpt>
      <trkpt lat="52.286470" lon="-1.771380">
       <ele>94.89</ele>
       <time>2023-09-20T19:20:22Z</time>
      </trkpt>
      <trkpt lat="52.286790" lon="-1.769040">
       <ele>95.44</ele>
       <time>2023-09-20T19:20:53Z</time>
      </trkpt>
      <trkpt lat="52.286860" lon="-1.767340">
       <ele>93.69</ele>
       <time>2023-09-20T19:21:14Z</time>
      </trkpt>
      <trkpt lat="52.287850" lon="-1.767450">
       <ele>97.3</ele>
       <time>2023-09-20T19:21:35Z</time>
      </trkpt>
      <trkpt lat="52.288820" lon="-1.767310">
       <ele>98.85</ele>
       <time>2023-09-20T19:21:55Z</time>
      </trkpt>
      <trkpt lat="52.289720" lon="-1.767310">
       <ele>101.1</ele>
       <time>2023-09-20T19:22:14Z</time>
      </trkpt>
      <trkpt lat="52.290240" lon="-1.767160">
       <ele>102.29</ele>
       <time>2023-09-20T19:22:25Z</time>
      </trkpt>
      <trkpt lat="52.290880" lon="-1.767140">
       <ele>104.06</ele>
       <time>2023-09-20T19:22:38Z</time>
      </trkpt>
      <trkpt lat="52.292560" lon="-1.766900">
       <ele>107.82</ele>
       <time>2023-09-20T19:23:13Z</time>
      </trkpt>
      <trkpt lat="52.292710" lon="-1.766750">
       <ele>108.35</ele>
       <time>2023-09-20T19:23:16Z</time>
      </trkpt>
      <trkpt lat="52.292880" lon="-1.766370">
       <ele>108.72</ele>
       <time>2023-09-20T19:23:22Z</time>
      </trkpt>
      <trkpt lat="52.292670" lon="-1.764880">
       <ele>106.61</ele>
       <time>2023-09-20T19:23:42Z</time>
      </trkpt>
      <trkpt lat="52.292700" lon="-1.764610">
       <ele>106.72</ele>
       <time>2023-09-20T19:23:45Z</time>
      </trkpt>
      <trkpt lat="52.293480" lon="-1.763870">
       <ele>108.58</ele>
       <time>2023-09-20T19:24:04Z</time>
      </trkpt>
      <trkpt lat="52.294390" lon="-1.762740">
       <ele>107.27</ele>
       <time>2023-09-20T19:24:28Z</time>
      </trkpt>
      <trkpt lat="52.294520" lon="-1.762380">
       <ele>107.49</ele>
       <time>2023-09-20T19:24:33Z</time>
      </trkpt>
      <trkpt lat="52.294450" lon="-1.761630">
       <ele>107.67</ele>
       <time>2023-09-20T19:24:43Z</time>
      </trkpt>
      <trkpt lat="52.294320" lon="-1.761320">
       <ele>107.29</ele>
       <time>2023-09-20T19:24:47Z</time>
      </trkpt>
      <trkpt lat="52.294110" lon="-1.761170">
       <ele>107</ele>
       <time>2023-09-20T19:24:52Z</time>
      </trkpt>
      <trkpt lat="52.293740" lon="-1.761090">
       <ele>107</ele>
       <time>2023-09-20T19:25:00Z</time>
      </trkpt>
      <trkpt lat="52.293630" lon="-1.760790">
       <ele>107.02</ele>
       <time>2023-09-20T19:25:04Z</time>
      </trkpt>
      <trkpt lat="52.293840" lon="-1.756930">
       <ele>107.92</ele>
       <time>2023-09-20T19:25:53Z</time>
      </trkpt>
      <trkpt lat="52.293930" lon="-1.756550">
       <ele>107.06</ele>
       <time>2023-09-20T19:25:59Z</time>
      </trkpt>
      <trkpt lat="52.294180" lon="-1.756430">
       <ele>106.55</ele>
       <time>2023-09-20T19:26:04Z</time>
      </trkpt>
      <trkpt lat="52.294980" lon="-1.756400">
       <ele>104.76</ele>
       <time>2023-09-20T19:26:21Z</time>
      </trkpt>
      <trkpt lat="52.295330" lon="-1.756280">
       <ele>103.51</ele>
       <time>2023-09-20T19:26:28Z</time>
      </trkpt>
      <trkpt lat="52.295790" lon="-1.755850">
       <ele>102.02</ele>
       <time>2023-09-20T19:26:39Z</time>
      </trkpt>
      <trkpt lat="52.296190" lon="-1.755260">
       <ele>100.06</ele>
       <time>2023-09-20T19:26:50Z</time>
      </trkpt>
      <trkpt lat="52.297260" lon="-1.754550">
       <ele>96.55</ele>
       <time>2023-09-20T19:27:14Z</time>
      </trkpt>
      <trkpt lat="52.297840" lon="-1.752900">
       <ele>94.78</ele>
       <time>2023-09-20T19:27:38Z</time>
      </trkpt>
      <trkpt lat="52.298760" lon="-1.751330">
       <ele>92.69</ele>
       <time>2023-09-20T19:28:06Z</time>
      </trkpt>
      <trkpt lat="52.299510" lon="-1.749290">
       <ele>93.27</ele>
       <time>2023-09-20T19:28:36Z</time>
      </trkpt>
      <trkpt lat="52.299910" lon="-1.747910">
       <ele>90.86</ele>
       <time>2023-09-20T19:28:55Z</time>
      </trkpt>
      <trkpt lat="52.300390" lon="-1.746930">
       <ele>88.85</ele>
       <time>2023-09-20T19:29:11Z</time>
      </trkpt>
      <trkpt lat="52.300530" lon="-1.746780">
       <ele>88.5</ele>
       <time>2023-09-20T19:29:15Z</time>
      </trkpt>
      <trkpt lat="52.300870" lon="-1.746640">
       <ele>88.06</ele>
       <time>2023-09-20T19:29:22Z</time>
      </trkpt>
      <trkpt lat="52.302270" lon="-1.746880">
       <ele>87.28</ele>
       <time>2023-09-20T19:29:51Z</time>
      </trkpt>
      <trkpt lat="52.303020" lon="-1.746580">
       <ele>87</ele>
       <time>2023-09-20T19:30:07Z</time>
      </trkpt>
      <trkpt lat="52.303330" lon="-1.746280">
       <ele>87</ele>
       <time>2023-09-20T19:30:15Z</time>
      </trkpt>
      <trkpt lat="52.303430" lon="-1.746070">
       <ele>87.51</ele>
       <time>2023-09-20T19:30:18Z</time>
      </trkpt>
      <trkpt lat="52.303540" lon="-1.745290">
       <ele>89.05</ele>
       <time>2023-09-20T19:30:28Z</time>
      </trkpt>
      <trkpt lat="52.303690" lon="-1.740510">
       <ele>89.63</ele>
       <time>2023-09-20T19:31:29Z</time>
      </trkpt>
      <trkpt lat="52.304830" lon="-1.738860">
       <ele>94.31</ele>
       <time>2023-09-20T19:32:01Z</time>
      </trkpt>
      <trkpt lat="52.306430" lon="-1.736150">
       <ele>99.43</ele>
       <time>2023-09-20T19:32:48Z</time>
      </trkpt>
      <trkpt lat="52.307220" lon="-1.732570">
       <ele>109.3</ele>
       <time>2023-09-20T19:33:37Z</time>
      </trkpt>
      <trkpt lat="52.307250" lon="-1.731920">
       <ele>110.1</ele>
       <time>2023-09-20T19:33:45Z</time>
      </trkpt>
      <trkpt lat="52.307000" lon="-1.730380">
       <ele>108.24</ele>
       <time>2023-09-20T19:34:05Z</time>
      </trkpt>
      <trkpt lat="52.307040" lon="-1.729360">
       <ele>104.82</ele>
       <time>2023-09-20T19:34:18Z</time>
      </trkpt>
      <trkpt lat="52.307330" lon="-1.726970">
       <ele>93.66</ele>
       <time>2023-09-20T19:34:49Z</time>
      </trkpt>
      <trkpt lat="52.307330" lon="-1.726120">
       <ele>90.89</ele>
       <time>2023-09-20T19:35:00Z</time>
      </trkpt>
      <trkpt lat="52.307580" lon="-1.725570">
       <ele>89.46</ele>
       <time>2023-09-20T19:35:08Z</time>
      </trkpt>
      <trkpt lat="52.307790" lon="-1.725530">
       <ele>89.62</ele>
       <time>2023-09-20T19:35:13Z</time>
      </trkpt>
      <trkpt lat="52.308370" lon="-1.725740">
       <ele>90.77</ele>
       <time>2023-09-20T19:35:25Z</time>
      </trkpt>
      <trkpt lat="52.308980" lon="-1.726850">
       <ele>93.88</ele>
       <time>2023-09-20T19:35:44Z</time>
      </trkpt>
      <trkpt lat="52.309420" lon="-1.727420">
       <ele>95.76</ele>
       <time>2023-09-20T19:35:56Z</time>
      </trkpt>
      <trkpt lat="52.309800" lon="-1.727740">
       <ele>95.15</ele>
       <time>2023-09-20T19:36:04Z</time>
      </trkpt>
      <trkpt lat="52.310460" lon="-1.727980">
       <ele>93.79</ele>
       <time>2023-09-20T19:36:18Z</time>
      </trkpt>
      <trkpt lat="52.311400" lon="-1.728610">
       <ele>95</ele>
       <time>2023-09-20T19:36:39Z</time>
      </trkpt>
      <trkpt lat="52.312380" lon="-1.729490">
       <ele>98.96</ele>
       <time>2023-09-20T19:37:03Z</time>
      </trkpt>
      <trkpt lat="52.312990" lon="-1.730220">
       <ele>102.6</ele>
       <time>2023-09-20T19:37:18Z</time>
      </trkpt>
      <trkpt lat="52.314230" lon="-1.731120">
       <ele>104.32</ele>
       <time>2023-09-20T19:37:46Z</time>
      </trkpt>
      <trkpt lat="52.315270" lon="-1.731710">
       <ele>105.78</ele>
       <time>2023-09-20T19:38:09Z</time>
      </trkpt>
      <trkpt lat="52.315820" lon="-1.732140">
       <ele>106.15</ele>
       <time>2023-09-20T19:38:22Z</time>
      </trkpt>
      <trkpt lat="52.317030" lon="-1.733360">
       <ele>107.22</ele>
       <time>2023-09-20T19:38:51Z</time>
      </trkpt>
      <trkpt lat="52.317690" lon="-1.733800">
       <ele>108.34</ele>
       <time>2023-09-20T19:39:06Z</time>
      </trkpt>
      <trkpt lat="52.318830" lon="-1.734750">
       <ele>113.31</ele>
       <time>2023-09-20T19:39:33Z</time>
      </trkpt>
      <trkpt lat="52.319590" lon="-1.735110">
       <ele>115.17</ele>
       <time>2023-09-20T19:39:49Z</time>
      </trkpt>
      <trkpt lat="52.319610" lon="-1.735280">
       <ele>114.66</ele>
       <time>2023-09-20T19:39:51Z</time>
      </trkpt>
      <trkpt lat="52.319060" lon="-1.736610">
       <ele>113.99</ele>
       <time>2023-09-20T19:40:12Z</time>
      </trkpt>
      <trkpt lat="52.318990" lon="-1.737770">
       <ele>110.59</ele>
       <time>2023-09-20T19:40:26Z</time>
      </trkpt>
      <trkpt lat="52.319020" lon="-1.741020">
       <ele>101.57</ele>
       <time>2023-09-20T19:41:08Z</time>
      </trkpt>
      <trkpt lat="52.319110" lon="-1.741310">
       <ele>100.23</ele>
       <time>2023-09-20T19:41:12Z</time>
      </trkpt>
      <trkpt lat="52.320020" lon="-1.741970">
       <ele>96.7</ele>
       <time>2023-09-20T19:41:32Z</time>
      </trkpt>
      <trkpt lat="52.321280" lon="-1.742550">
       <ele>100.6</ele>
       <time>2023-09-20T19:42:00Z</time>
      </trkpt>
      <trkpt lat="52.321610" lon="-1.742580">
       <ele>101.11</ele>
       <time>2023-09-20T19:42:06Z</time>
      </trkpt>
      <trkpt lat="52.321920" lon="-1.742400">
       <ele>100.76</ele>
       <time>2023-09-20T19:42:13Z</time>
      </trkpt>
      <trkpt lat="52.322020" lon="-1.742480">
       <ele>100.95</ele>
       <time>2023-09-20T19:42:16Z</time>
      </trkpt>
      <trkpt lat="52.322060" lon="-1.743020">
       <ele>102.25</ele>
       <time>2023-09-20T19:42:22Z</time>
      </trkpt>
      <trkpt lat="52.321730" lon="-1.744170">
       <ele>100.92</ele>
       <time>2023-09-20T19:42:39Z</time>
      </trkpt>
      <trkpt lat="52.321500" lon="-1.744630">
       <ele>100.11</ele>
       <time>2023-09-20T19:42:46Z</time>
      </trkpt>
      <trkpt lat="52.321410" lon="-1.745250">
       <ele>99.73</ele>
       <time>2023-09-20T19:42:54Z</time>
      </trkpt>
      <trkpt lat="52.321610" lon="-1.749150">
       <ele>109.87</ele>
       <time>2023-09-20T19:43:44Z</time>
      </trkpt>
      <trkpt lat="52.321860" lon="-1.750030">
       <ele>112.1</ele>
       <time>2023-09-20T19:43:56Z</time>
      </trkpt>
      <trkpt lat="52.321950" lon="-1.752170">
       <ele>119.08</ele>
       <time>2023-09-20T19:44:23Z</time>
      </trkpt>
      <trkpt lat="52.322220" lon="-1.753940">
       <ele>126.91</ele>
       <time>2023-09-20T19:44:46Z</time>
      </trkpt>
      <trkpt lat="52.322780" lon="-1.756620">
       <ele>127.41</ele>
       <time>2023-09-20T19:45:22Z</time>
      </trkpt>
      <trkpt lat="52.323250" lon="-1.757320">
       <ele>126.96</ele>
       <time>2023-09-20T19:45:35Z</time>
      </trkpt>
      <trkpt lat="52.324220" lon="-1.758330">
       <ele>132.13</ele>
       <time>2023-09-20T19:45:59Z</time>
      </trkpt>
      <trkpt lat="52.324680" lon="-1.759020">
       <ele>132.41</ele>
       <time>2023-09-20T19:46:12Z</time>
      </trkpt>
      <trkpt lat="52.325010" lon="-1.760280">
       <ele>133.34</ele>
       <time>2023-09-20T19:46:30Z</time>
      </trkpt>
      <trkpt lat="52.324990" lon="-1.761270">
       <ele>134.49</ele>
       <time>2023-09-20T19:46:42Z</time>
      </trkpt>
      <trkpt lat="52.324440" lon="-1.763570">
       <ele>133.94</ele>
       <time>2023-09-20T19:47:13Z</time>
      </trkpt>
      <trkpt lat="52.324150" lon="-1.765320">
       <ele>135.31</ele>
       <time>2023-09-20T19:47:36Z</time>
      </trkpt>
      <trkpt lat="52.323730" lon="-1.769160">
       <ele>137</ele>
       <time>2023-09-20T19:48:26Z</time>
      </trkpt>
      <trkpt lat="52.323550" lon="-1.770030">
       <ele>137.71</ele>
       <time>2023-09-20T19:48:37Z</time>
      </trkpt>
      <trkpt lat="52.323060" lon="-1.775280">
       <ele>137</ele>
       <time>2023-09-20T19:49:45Z</time>
      </trkpt>
      <trkpt lat="52.323990" lon="-1.776150">
       <ele>137.79</ele>
       <time>2023-09-20T19:50:07Z</time>
      </trkpt>
      <trkpt lat="52.324550" lon="-1.776830">
       <ele>137.63</ele>
       <time>2023-09-20T19:50:21Z</time>
      </trkpt>
      <trkpt lat="52.326200" lon="-1.779100">
       <ele>139</ele>
       <time>2023-09-20T19:51:06Z</time>
      </trkpt>
      <trkpt lat="52.326950" lon="-1.780300">
       <ele>137.78</ele>
       <time>2023-09-20T19:51:28Z</time>
      </trkpt>
      <trkpt lat="52.327140" lon="-1.780840">
       <ele>137.73</ele>
       <time>2023-09-20T19:51:36Z</time>
      </trkpt>
      <trkpt lat="52.327300" lon="-1.781760">
       <ele>137.78</ele>
       <time>2023-09-20T19:51:48Z</time>
      </trkpt>
      <trkpt lat="52.327580" lon="-1.782570">
       <ele>137.43</ele>
       <time>2023-09-20T19:52:00Z</time>
      </trkpt>
      <trkpt lat="52.327810" lon="-1.784030">
       <ele>136.98</ele>
       <time>2023-09-20T19:52:19Z</time>
      </trkpt>
      <trkpt lat="52.327840" lon="-1.786600">
       <ele>138.34</ele>
       <time>2023-09-20T19:52:51Z</time>
      </trkpt>
      <trkpt lat="52.327930" lon="-1.787260">
       <ele>138.33</ele>
       <time>2023-09-20T19:53:00Z</time>
      </trkpt>
      <trkpt lat="52.328290" lon="-1.788020">
       <ele>139.24</ele>
       <time>2023-09-20T19:53:12Z</time>
      </trkpt>
      <trkpt lat="52.329000" lon="-1.788690">
       <ele>141.23</ele>
       <time>2023-09-20T19:53:29Z</time>
      </trkpt>
      <trkpt lat="52.329210" lon="-1.789060">
       <ele>141.82</ele>
       <time>2023-09-20T19:53:36Z</time>
      </trkpt>
      <trkpt lat="52.329530" lon="-1.793200">
       <ele>142</ele>
       <time>2023-09-20T19:54:28Z</time>
      </trkpt>
      <trkpt lat="52.329490" lon="-1.794430">
       <ele>140.81</ele>
       <time>2023-09-20T19:54:44Z</time>
      </trkpt>
      <trkpt lat="52.330540" lon="-1.799110">
       <ele>145.56</ele>
       <time>2023-09-20T19:55:47Z</time>
      </trkpt>
      <trkpt lat="52.331090" lon="-1.799330">
       <ele>145.89</ele>
       <time>2023-09-20T19:55:59Z</time>
      </trkpt>
      <trkpt lat="52.332380" lon="-1.799450">
       <ele>145.9</ele>
       <time>2023-09-20T19:56:26Z</time>
      </trkpt>
      <trkpt lat="52.332960" lon="-1.799690">
       <ele>144.9</ele>
       <time>2023-09-20T19:56:38Z</time>
      </trkpt>
      <trkpt lat="52.335200" lon="-1.801410">
       <ele>146.25</ele>
       <time>2023-09-20T19:57:29Z</time>
      </trkpt>
      <trkpt lat="52.336530" lon="-1.802310">
       <ele>148.58</ele>
       <time>2023-09-20T19:57:59Z</time>
      </trkpt>
      <trkpt lat="52.342590" lon="-1.806990">
       <ele>153.14</ele>
       <time>2023-09-20T20:00:18Z</time>
      </trkpt>
      <trkpt lat="52.343840" lon="-1.807770">
       <ele>151.03</ele>
       <time>2023-09-20T20:00:46Z</time>
      </trkpt>
      <trkpt lat="52.343270" lon="-1.811520">
       <ele>153.99</ele>
       <time>2023-09-20T20:01:35Z</time>
      </trkpt>
      <trkpt lat="52.343070" lon="-1.814530">
       <ele>148.81</ele>
       <time>2023-09-20T20:02:13Z</time>
      </trkpt>
      <trkpt lat="52.343100" lon="-1.815590">
       <ele>149.47</ele>
       <time>2023-09-20T20:02:27Z</time>
      </trkpt>
      <trkpt lat="52.343730" lon="-1.820170">
       <ele>149.2</ele>
       <time>2023-09-20T20:03:26Z</time>
      </trkpt>
      <trkpt lat="52.344010" lon="-1.821500">
       <ele>150</ele>
       <time>2023-09-20T20:03:44Z</time>
      </trkpt>
      <trkpt lat="52.344880" lon="-1.824540">
       <ele>151</ele>
       <time>2023-09-20T20:04:26Z</time>
      </trkpt>
      <trkpt lat="52.345450" lon="-1.827310">
       <ele>152.27</ele>
       <time>2023-09-20T20:05:04Z</time>
      </trkpt>
      <trkpt lat="52.347330" lon="-1.826570">
       <ele>152.27</ele>
       <time>2023-09-20T20:05:44Z</time>
      </trkpt>
      <trkpt lat="52.347830" lon="-1.826280">
       <ele>150.93</ele>
       <time>2023-09-20T20:05:55Z</time>
      </trkpt>
      <trkpt lat="52.349790" lon="-1.824950">
       <ele>151.08</ele>
       <time>2023-09-20T20:06:39Z</time>
      </trkpt>
      <trkpt lat="52.351400" lon="-1.823660">
       <ele>147.73</ele>
       <time>2023-09-20T20:07:16Z</time>
      </trkpt>
      <trkpt lat="52.351790" lon="-1.823430">
       <ele>147.87</ele>
       <time>2023-09-20T20:07:24Z</time>
      </trkpt>
      <trkpt lat="52.352960" lon="-1.822310">
       <ele>147.38</ele>
       <time>2023-09-20T20:07:52Z</time>
      </trkpt>
      <trkpt lat="52.355210" lon="-1.819840">
       <ele>144.19</ele>
       <time>2023-09-20T20:08:49Z</time>
      </trkpt>
      <trkpt lat="52.356090" lon="-1.821270">
       <ele>142.64</ele>
       <time>2023-09-20T20:09:14Z</time>
      </trkpt>
      <trkpt lat="52.357990" lon="-1.822860">
       <ele>147.02</ele>
       <time>2023-09-20T20:09:59Z</time>
      </trkpt>
      <trkpt lat="52.359550" lon="-1.824520">
       <ele>150.66</ele>
       <time>2023-09-20T20:10:37Z</time>
      </trkpt>
      <trkpt lat="52.361690" lon="-1.827250">
       <ele>150.64</ele>
       <time>2023-09-20T20:11:33Z</time>
      </trkpt>
      <trkpt lat="52.363100" lon="-1.829240">
       <ele>149.56</ele>
       <time>2023-09-20T20:12:12Z</time>
      </trkpt>
      <trkpt lat="52.363200" lon="-1.829700">
       <ele>149.32</ele>
       <time>2023-09-20T20:12:18Z</time>
      </trkpt>
      <trkpt lat="52.363400" lon="-1.829610">
       <ele>148.84</ele>
       <time>2023-09-20T20:12:22Z</time>
      </trkpt>
      <trkpt lat="52.364700" lon="-1.831130">
       <ele>142.22</ele>
       <time>2023-09-20T20:12:56Z</time>
      </trkpt>
      <trkpt lat="52.367320" lon="-1.835210">
       <ele>139.67</ele>
       <time>2023-09-20T20:14:11Z</time>
      </trkpt>
    </trkseg>
  </trk>
</gpx>
